Itapebi, Brazil
Current Conditions -  °F | °C
As of 11:00 AM on Thursday 30 Oct 2014 (Local Time) from SBPS Reporting Station
Rain Showers Rain Showers  
Wind Chill: 81°   Ceiling: Unl
Heat Index: 85°   Visibility: 5mi
Dew Point: 73°   Wind: 21mph
Humidity: 79%   Direction: 70°ENE
Pressure: NA   Gusts: NA
Location:  15.95°S, 39.53°W
Report Text: SBPS 301400Z 07018KT 8000 VCSH SCT015 SCT020 FEW025TCU 27/23 Q1016
Loading
Personal Weather Stations






























Interactive Weather Map
Tropical Storm Tracking
New forecast layout! Learn more

10-Day Weather Forecast

Advertisements
Track Severe Weather on mobile